CST,Max TemperatureF,Mean TemperatureF,Min TemperatureF,Max Dew PointF,MeanDew PointF,Min DewpointF,Max Humidity, Mean Humidity, Min Humidity, Max Sea Level PressureIn, Mean Sea Level PressureIn, Min Sea Level PressureIn, Max VisibilityMiles, Mean VisibilityMiles, Min VisibilityMiles, Max Wind SpeedMPH, Mean Wind SpeedMPH, Max Gust SpeedMPH,PrecipitationIn, CloudCover, Events, WindDirDegrees
2012-11-1,58,42,27,32,28,21,87,61,35,29.96,29.90,29.83,10,10,7,14,3,20,0.00,3,,315
2012-11-2,48,38,28,31,29,24,96,68,40,30.16,30.08,29.97,10,10,10,9,5,,0.00,0,,12
2012-11-3,49,40,30,34,32,29,93,71,53,30.23,30.19,30.13,10,10,7,10,5,,0.00,6,,61
2012-11-4,49,40,31,35,32,29,96,75,53,30.26,30.22,30.17,10,10,10,6,1,,0.00,6,,267
2012-11-5,49,38,28,33,29,26,97,72,44,30.20,30.16,30.10,10,9,3,10,5,,0.00,3,,77
2012-11-6,42,34,26,41,36,25,97,93,83,30.11,29.94,29.85,10,6,2,10,3,,0.15,7,Rain,176
2012-11-7,43,40,36,39,37,34,96,86,69,30.17,30.08,29.89,10,8,5,8,4,,0.00,8,,331
2012-11-8,52,44,35,38,36,33,93,79,57,30.19,30.11,30.04,10,9,5,13,5,16,0.00,2,,161
2012-11-9,57,46,35,46,41,34,96,80,59,30.06,29.99,29.93,10,8,4,10,5,,0.00,5,,96
2012-11-10,70,60,51,54,51,46,89,69,54,29.94,29.82,29.76,10,10,7,22,11,30,0.00,3,Rain,156
2012-11-11,65,49,33,57,46,26,93,79,63,30.02,29.82,29.64,10,9,2,26,15,34,0.61,7,Rain-Snow-Thunderstorm,209
2012-11-12,34,29,24,26,21,18,80,69,60,30.37,30.18,30.01,10,10,10,20,13,28,0.08,5,,267
2012-11-13,41,32,22,25,22,19,93,69,41,30.50,30.44,30.37,10,10,10,8,4,,0.00,0,,199
2012-11-14,51,41,31,32,29,24,84,71,45,30.45,30.40,30.34,10,10,10,15,6,20,0.00,3,,157
2012-11-15,54,42,29,32,30,27,90,73,38,30.35,30.32,30.28,10,10,7,10,5,,0.00,0,,164
2012-11-16,54,40,25,36,32,25,97,80,46,30.46,30.42,30.35,10,8,3,7,1,,0.00,0,,61
2012-11-17,56,42,27,35,31,27,98,77,43,30.50,30.45,30.41,10,7,2,10,2,,0.00,0,,146
2012-11-18,55,42,30,37,34,30,98,71,46,30.41,30.33,30.26,10,8,3,12,4,,0.00,0,,146
2012-11-19,56,48,40,44,40,35,84,74,60,30.27,30.16,30.08,10,10,7,13,5,16,0.00,5,,161
2012-11-20,59,51,42,46,44,42,98,82,61,30.19,30.13,30.07,10,6,0,8,2,,0.00,3,Fog,303
2012-11-21,60,48,37,49,42,37,99,91,58,30.22,30.14,30.03,10,4,0,12,5,,0.00,4,Fog-Snow,173
2012-11-22,63,52,40,49,42,31,95,73,50,30.04,29.88,29.75,10,8,2,24,12,38,0.00,2,Thunderstorm,195
2012-11-23,41,33,25,31,20,15,71,63,52,30.27,30.15,29.96,10,10,10,28,17,43,0.00,6,,294
2012-11-24,33,25,17,22,19,15,90,71,58,30.28,30.16,29.92,10,10,10,12,6,,0.00,4,,229
2012-11-25,43,34,24,26,24,20,86,67,47,30.11,29.94,29.85,10,10,10,10,5,,0.00,2,,287
2012-11-26,34,27,19,24,19,8,94,69,51,30.41,30.27,30.11,10,10,10,10,5,,0.00,2,,324
2012-11-27,32,21,10,18,13,8,94,67,46,30.42,30.34,30.25,10,10,7,10,2,,0.00,2,,200
2012-11-28,46,32,19,24,21,14,87,64,37,30.39,30.31,30.23,10,10,10,9,4,,0.00,1,,205
2012-11-29,53,38,24,36,30,22,90,71,46,30.23,30.11,30.02,10,10,5,9,6,,0.00,2,,156
2012-11-30,53,42,32,37,34,32,96,77,52,30.14,30.07,30.02,10,8,3,12,5,,0.00,1,,53